Time;durP1;ratioP1;P1;durP2;ratioP2;P2;SDS_P1;SDS_P2;PMS_P1;PMS_P2;Temp;Humidity;BMP_temperature;BMP_pressure;BME280_temperature;BME280_humidity;BME280_pressure;Samples;Min_cycle;Max_cycle;Signal;HPM_P1;HPM_P2
2023/08/17 00:01:37;;;;;;;3.60;0.20;;;;;;;18.42;68.48;101992.16;5049950;28;20051;-73
2023/08/17 00:04:04;;;;;;;0.65;0.22;;;;;;;18.40;68.36;101999.28;5047871;28;20059;-73
2023/08/17 00:06:31;;;;;;;1.20;0.30;;;;;;;18.34;68.49;101994.19;5047224;28;20049;-73
2023/08/17 00:08:58;;;;;;;2.88;0.25;;;;;;;18.35;68.32;101996.75;5050360;28;20049;-77
2023/08/17 00:11:25;;;;;;;2.92;0.30;;;;;;;18.33;68.34;102006.53;5056115;28;20509;-78
2023/08/17 00:13:52;;;;;;;2.03;0.25;;;;;;;18.31;68.46;102000.44;5053299;28;20502;-77
2023/08/17 00:16:19;;;;;;;1.67;0.30;;;;;;;18.24;68.20;101990.06;5052616;28;20441;-75
2023/08/17 00:18:48;;;;;;;3.67;0.45;;;;;;;18.26;68.38;101996.19;5049813;28;20053;-76
2023/08/17 00:21:15;;;;;;;1.27;0.20;;;;;;;18.23;68.41;102001.59;5048564;28;20048;-77
2023/08/17 00:23:42;;;;;;;0.77;0.22;;;;;;;18.21;68.40;102009.53;5046890;28;20052;-77
2023/08/17 00:26:09;;;;;;;2.88;0.28;;;;;;;18.17;68.21;102011.44;5056738;28;20091;-77
2023/08/17 00:28:36;;;;;;;0.40;0.20;;;;;;;18.15;68.17;102009.75;5051380;28;20055;-78
2023/08/17 00:31:03;;;;;;;1.52;0.28;;;;;;;18.12;68.38;102015.97;5055932;28;20048;-77
2023/08/17 00:33:30;;;;;;;1.73;0.20;;;;;;;18.08;68.36;102001.13;5053494;28;20481;-77
2023/08/17 00:35:59;;;;;;;0.38;0.20;;;;;;;18.05;68.27;102003.88;5054058;28;20417;-77
2023/08/17 00:38:26;;;;;;;1.55;0.22;;;;;;;18.03;68.54;102005.69;5054067;28;20067;-77
2023/08/17 00:40:54;;;;;;;1.15;0.20;;;;;;;17.95;68.42;102002.41;5054877;28;20219;-77
2023/08/17 00:43:21;;;;;;;3.35;0.20;;;;;;;17.97;68.44;102011.16;5049987;28;20338;-77
2023/08/17 00:45:48;;;;;;;2.17;0.30;;;;;;;17.94;68.66;102017.41;5053233;28;20055;-77
2023/08/17 00:48:15;;;;;;;2.92;0.30;;;;;;;17.86;68.45;102007.97;5051837;28;20055;-77
2023/08/17 00:50:43;;;;;;;1.45;0.30;;;;;;;17.88;68.76;102022.03;5056156;28;20049;-77
2023/08/17 00:53:13;;;;;;;0.30;0.20;;;;;;;17.85;68.48;102024.75;5056956;28;20514;-77
2023/08/17 00:55:40;;;;;;;0.73;0.20;;;;;;;17.82;68.76;102023.06;5053733;28;20077;-77
2023/08/17 00:58:07;;;;;;;0.75;0.28;;;;;;;17.79;68.44;102023.16;5051976;28;20048;-77
2023/08/17 01:00:34;;;;;;;1.02;0.20;;;;;;;17.76;68.80;102021.44;5056551;28;20178;-77
2023/08/17 01:03:01;;;;;;;0.70;0.20;;;;;;;17.74;68.73;102019.72;5056755;28;20532;-77
2023/08/17 01:05:28;;;;;;;1.40;0.20;;;;;;;17.58;68.71;101998.16;5055617;28;20080;-77
2023/08/17 01:07:55;;;;;;;0.77;0.20;;;;;;;17.68;68.81;102020.78;5057085;28;20063;-76
2023/08/17 01:10:23;;;;;;;0.90;0.20;;;;;;;17.65;68.81;102026.16;5056390;28;20045;-77
2023/08/17 01:12:57;;;;;;;0.35;0.20;;;;;;;17.62;68.92;102030.66;5056965;28;20049;-77
2023/08/17 01:15:32;;;;;;;0.70;0.30;;;;;;;17.58;68.93;102027.22;5058807;28;20041;-77
2023/08/17 01:18:05;;;;;;;2.72;0.30;;;;;;;17.56;68.99;102031.69;5056989;28;20045;-77
2023/08/17 01:20:33;;;;;;;2.95;0.30;;;;;;;17.54;69.08;102030.88;5058298;28;20057;-73
2023/08/17 01:23:06;;;;;;;1.48;0.20;;;;;;;17.50;69.10;102031.84;5055491;28;20056;-73
2023/08/17 01:25:36;;;;;;;2.17;0.20;;;;;;;17.47;69.25;102039.84;5050500;28;20060;-74
2023/08/17 01:28:03;;;;;;;0.40;0.20;;;;;;;17.44;69.04;102039.94;5053323;28;20154;-72
2023/08/17 01:30:34;;;;;;;1.90;0.20;;;;;;;17.41;69.29;102038.25;5054037;28;20045;-77
2023/08/17 01:33:07;;;;;;;0.50;0.30;;;;;;;17.39;69.16;102041.81;5054993;28;20060;-77
2023/08/17 01:35:40;;;;;;;2.85;0.20;;;;;;;17.35;69.50;102043.69;5054992;28;20045;-77
2023/08/17 01:38:15;;;;;;;0.35;0.32;;;;;;;17.34;69.33;102046.38;5058872;28;20051;-77
2023/08/17 01:40:43;;;;;;;1.05;0.20;;;;;;;17.30;69.52;102046.47;5056417;28;20052;-73
2023/08/17 01:43:10;;;;;;;2.22;0.22;;;;;;;17.28;69.40;102048.28;5054777;28;20098;-73
2023/08/17 01:45:37;;;;;;;0.63;0.30;;;;;;;17.27;69.76;102046.53;5057273;28;20060;-73
2023/08/17 01:48:05;;;;;;;1.58;0.20;;;;;;;17.25;69.86;102053.66;5051637;28;20040;-73
2023/08/17 01:50:32;;;;;;;1.73;0.20;;;;;;;17.23;69.90;102051.94;5052605;28;20062;-73
2023/08/17 01:52:59;;;;;;;4.28;0.20;;;;;;;17.20;70.03;102052.88;5047741;28;20418;-73
2023/08/17 01:55:27;;;;;;;4.03;0.20;;;;;;;17.19;70.06;102052.91;5049597;28;20055;-73
2023/08/17 01:57:54;;;;;;;1.42;0.20;;;;;;;17.18;70.14;102062.63;5050621;28;20045;-73
2023/08/17 02:00:21;;;;;;;1.55;0.20;;;;;;;17.14;70.54;102060.09;5051632;28;20045;-73
2023/08/17 02:02:48;;;;;;;0.20;0.20;;;;;;;17.16;70.29;102074.13;5056206;28;20729;-73
2023/08/17 02:05:15;;;;;;;1.17;0.20;;;;;;;17.14;70.60;102066.25;5054649;28;20123;-73
2023/08/17 02:07:42;;;;;;;6.95;0.40;;;;;;;17.13;70.53;102066.28;5056782;28;20053;-73
2023/08/17 02:10:09;;;;;;;1.63;0.20;;;;;;;17.12;70.99;102065.41;5051577;28;20045;-73
2023/08/17 02:12:38;;;;;;;2.13;0.28;;;;;;;17.11;70.89;102074.25;5038123;28;20729;-73
2023/08/17 02:15:05;;;;;;;1.30;0.30;;;;;;;17.11;71.10;102073.38;5051011;28;20044;-73
2023/08/17 02:17:32;;;;;;;2.10;0.20;;;;;;;17.09;70.94;102071.63;5049560;28;20049;-73
2023/08/17 02:19:59;;;;;;;1.35;0.30;;;;;;;17.11;70.92;102073.38;5052757;28;20045;-72
2023/08/17 02:22:26;;;;;;;0.55;0.20;;;;;;;17.09;71.04;102084.84;5053808;28;20041;-72
2023/08/17 02:24:52;;;;;;;2.35;0.32;;;;;;;17.09;71.32;102084.84;5054909;28;20464;-73
2023/08/17 02:27:19;;;;;;;6.18;0.20;;;;;;;17.08;71.25;102082.25;5051869;28;20053;-73
2023/08/17 02:29:48;;;;;;;0.63;0.30;;;;;;;16.97;71.48;102064.03;5050642;28;20044;-73
2023/08/17 02:32:15;;;;;;;1.58;0.63;;;;;;;17.07;71.34;102094.56;5048456;28;20054;-73
2023/08/17 02:34:41;;;;;;;0.55;0.22;;;;;;;17.07;71.38;102097.19;5050780;28;20044;-73
2023/08/17 02:37:08;;;;;;;0.30;0.30;;;;;;;17.05;71.42;102096.38;5051322;28;20044;-72
2023/08/17 02:39:35;;;;;;;1.42;0.20;;;;;;;17.06;71.33;102099.91;5055195;28;20048;-79
2023/08/17 02:42:02;;;;;;;3.22;0.20;;;;;;;17.04;71.51;102096.41;5053088;28;20053;-80
2023/08/17 02:44:29;;;;;;;3.50;0.20;;;;;;;17.02;71.66;102109.66;5063494;28;20479;-80
2023/08/17 02:46:57;;;;;;;1.55;0.30;;;;;;;17.04;71.92;102112.25;5063342;28;20052;-80
2023/08/17 02:49:24;;;;;;;2.90;0.30;;;;;;;17.03;71.74;102105.25;5058706;28;20753;-70
2023/08/17 02:51:51;;;;;;;2.25;0.20;;;;;;;17.00;71.98;102114.09;5056887;28;20119;-70
2023/08/17 02:54:18;;;;;;;3.15;0.30;;;;;;;17.00;72.12;102110.59;5048427;28;20048;-70
2023/08/17 02:56:45;;;;;;;1.30;0.30;;;;;;;17.00;72.10;102115.88;5053928;28;20045;-69
2023/08/17 02:59:12;;;;;;;2.42;0.30;;;;;;;17.00;72.29;102122.03;5048309;28;20049;-70
2023/08/17 03:01:39;;;;;;;1.88;0.30;;;;;;;17.01;72.39;102122.88;5050641;28;20049;-69
2023/08/17 03:04:07;;;;;;;1.73;0.30;;;;;;;17.01;72.42;102117.59;5053796;28;20771;-70
2023/08/17 03:06:34;;;;;;;0.85;0.28;;;;;;;16.99;72.61;102122.03;5051443;28;20500;-69
2023/08/17 03:09:01;;;;;;;0.57;0.25;;;;;;;17.00;72.46;102124.66;5053871;28;20045;-69
2023/08/17 03:11:28;;;;;;;1.38;0.30;;;;;;;16.99;72.78;102122.03;5051280;28;20051;-69
2023/08/17 03:13:59;;;;;;;3.95;0.45;;;;;;;17.00;72.74;102126.44;5050117;28;20716;-69
2023/08/17 03:16:26;;;;;;;0.70;0.30;;;;;;;17.00;72.55;102131.72;5054526;28;20053;-69
2023/08/17 03:18:53;;;;;;;1.60;0.30;;;;;;;17.00;72.55;102129.09;5051330;28;20043;-70
2023/08/17 03:21:21;;;;;;;0.40;0.28;;;;;;;17.00;72.66;102132.59;5052700;28;20056;-70
2023/08/17 03:23:49;;;;;;;2.05;0.40;;;;;;;17.00;72.69;102137.00;5052624;28;20045;-70
2023/08/17 03:26:16;;;;;;;0.90;0.30;;;;;;;17.01;72.87;102144.00;5054395;28;20052;-70
2023/08/17 03:28:43;;;;;;;1.33;0.30;;;;;;;17.00;72.71;102150.19;5052255;28;20045;-70
2023/08/17 03:31:10;;;;;;;3.65;0.28;;;;;;;16.82;72.74;102112.78;5056294;28;20037;-70
2023/08/17 03:33:37;;;;;;;1.38;0.30;;;;;;;17.00;72.92;102155.47;5054968;28;20055;-69
2023/08/17 03:36:04;;;;;;;0.88;0.30;;;;;;;16.99;72.93;102157.25;5049368;28;20045;-70
2023/08/17 03:38:33;;;;;;;1.45;0.30;;;;;;;16.98;72.82;102154.63;5052988;28;20617;-69
2023/08/17 03:40:59;;;;;;;1.90;0.22;;;;;;;16.99;72.91;102161.66;5052987;28;20052;-69
2023/08/17 03:43:27;;;;;;;2.72;0.40;;;;;;;16.98;73.08;102159.91;5061291;28;20040;-70
2023/08/17 03:45:54;;;;;;;1.02;0.22;;;;;;;16.98;73.11;102159.91;5051707;28;20059;-69
2023/08/17 03:48:22;;;;;;;0.40;0.30;;;;;;;16.97;73.07;102166.97;5054442;28;20051;-70
2023/08/17 03:50:52;;;;;;;1.48;0.30;;;;;;;16.80;73.17;102150.66;5051315;28;20037;-73
2023/08/17 03:53:19;;;;;;;1.85;0.25;;;;;;;16.97;73.42;102174.03;5054371;28;20055;-73
2023/08/17 03:55:48;;;;;;;0.85;0.28;;;;;;;16.97;73.59;102176.66;5048667;28;20048;-73
2023/08/17 03:58:15;;;;;;;1.02;0.22;;;;;;;16.97;73.55;102174.03;5051653;28;20053;-73
2023/08/17 04:00:42;;;;;;;0.93;0.20;;;;;;;16.97;73.57;102174.03;5052583;28;20936;-73
2023/08/17 04:03:09;;;;;;;1.65;0.30;;;;;;;16.97;73.70;102171.38;5051430;28;20036;-73
2023/08/17 04:05:36;;;;;;;4.03;0.20;;;;;;;16.96;73.82;102169.63;5054769;28;20053;-73
2023/08/17 04:08:03;;;;;;;0.68;0.30;;;;;;;16.96;73.83;102162.59;5051915;28;20048;-73
2023/08/17 04:10:30;;;;;;;1.30;0.20;;;;;;;16.97;74.00;102169.63;5054331;28;20402;-73
2023/08/17 04:12:59;;;;;;;0.47;0.22;;;;;;;16.97;74.10;102174.91;5048980;28;20048;-73
2023/08/17 04:15:26;;;;;;;5.00;0.30;;;;;;;16.96;73.86;102174.91;5054409;28;20047;-72
2023/08/17 04:17:53;;;;;;;1.20;0.73;;;;;;;16.98;74.01;102184.53;5054348;28;20139;-73
2023/08/17 04:20:19;;;;;;;2.53;0.30;;;;;;;16.99;74.01;102188.94;5048144;28;20049;-75
2023/08/17 04:22:46;;;;;;;2.20;0.30;;;;;;;16.98;74.24;102184.53;5047748;28;20055;-74
2023/08/17 04:25:14;;;;;;;0.38;0.28;;;;;;;16.99;74.25;102182.75;5050913;28;20037;-73
2023/08/17 04:27:41;;;;;;;0.50;0.20;;;;;;;17.01;74.13;102186.25;5051388;28;20056;-74
2023/08/17 04:30:11;;;;;;;1.55;0.38;;;;;;;17.02;74.47;102182.72;5050645;28;20059;-74
2023/08/17 04:32:38;;;;;;;0.25;0.20;;;;;;;17.04;74.47;102196.72;5051549;28;20059;-74
2023/08/17 04:35:05;;;;;;;2.15;0.40;;;;;;;17.05;74.80;102193.22;5050052;28;20049;-74
2023/08/17 04:37:32;;;;;;;3.40;0.32;;;;;;;17.05;74.97;102190.56;5051714;28;20045;-89
2023/08/17 04:39:59;;;;;;;3.22;0.32;;;;;;;17.08;74.97;102199.28;5057009;28;20790;-85
2023/08/17 04:42:27;;;;;;;0.93;0.63;;;;;;;17.09;75.20;102198.38;5057116;28;20373;-86
2023/08/17 04:44:54;;;;;;;2.45;0.30;;;;;;;17.14;75.54;102200.03;5055098;28;20045;-81
2023/08/17 04:47:22;;;;;;;3.85;0.43;;;;;;;17.15;75.56;102194.72;5057469;28;20052;-86
2023/08/17 04:49:49;;;;;;;0.32;0.30;;;;;;;17.20;75.35;102197.25;5054494;28;20055;-87
2023/08/17 04:52:16;;;;;;;1.77;0.30;;;;;;;17.10;75.51;102172.81;5053110;28;20041;-82
2023/08/17 04:54:43;;;;;;;1.13;0.30;;;;;;;17.27;75.82;102199.69;5060528;28;20057;-85
2023/08/17 04:57:10;;;;;;;1.45;0.30;;;;;;;17.34;75.60;102202.22;5053542;28;20067;-87
2023/08/17 04:59:37;;;;;;;1.23;0.30;;;;;;;17.37;75.54;102196.88;5059939;28;20037;-77
2023/08/17 05:02:04;;;;;;;1.58;0.30;;;;;;;17.41;75.56;102199.38;5056655;28;20045;-79
2023/08/17 05:04:32;;;;;;;0.80;0.30;;;;;;;17.44;75.48;102185.22;5055257;28;20474;-80
2023/08/17 05:06:59;;;;;;;1.35;0.40;;;;;;;17.53;75.30;102196.44;5063986;28;20079;-80
2023/08/17 05:09:27;;;;;;;0.52;0.30;;;;;;;17.54;75.31;102195.53;5050130;28;20488;-79
2023/08/17 05:11:54;;;;;;;1.85;0.30;;;;;;;17.71;75.08;102212.75;5052207;28;20128;-78
2023/08/17 05:14:21;;;;;;;0.40;0.30;;;;;;;17.73;74.81;102208.25;5061470;28;20045;-80
2023/08/17 05:16:48;;;;;;;3.00;0.30;;;;;;;17.83;74.62;102214.25;5064233;28;20045;-79
2023/08/17 05:19:15;;;;;;;0.77;0.40;;;;;;;17.89;74.48;102214.94;5057859;28;20119;-79
2023/08/17 05:21:44;;;;;;;1.63;0.28;;;;;;;17.94;74.18;102215.69;5055967;28;20077;-80
2023/08/17 05:24:11;;;;;;;0.70;0.30;;;;;;;17.82;74.07;102188.72;5060408;28;20527;-80
2023/08/17 05:26:38;;;;;;;1.60;0.30;;;;;;;18.05;73.86;102215.41;5063171;28;20107;-79
2023/08/17 05:29:05;;;;;;;6.57;0.40;;;;;;;17.92;73.37;102191.06;5059481;28;20475;-79
2023/08/17 05:31:32;;;;;;;2.28;0.30;;;;;;;18.15;73.57;102223.94;5053368;28;20487;-80
2023/08/17 05:33:59;;;;;;;0.30;0.30;;;;;;;18.10;73.03;102213.50;5056005;28;20500;-83
2023/08/17 05:36:26;;;;;;;2.25;0.30;;;;;;;18.23;73.00;102235.19;5062299;28;20471;-79
2023/08/17 05:38:54;;;;;;;0.60;0.30;;;;;;;18.27;72.80;102235.97;5060787;28;20045;-81
2023/08/17 05:41:21;;;;;;;2.25;0.50;;;;;;;18.29;72.78;102239.44;5061001;28;20533;-79
2023/08/17 05:43:49;;;;;;;2.05;0.40;;;;;;;18.21;72.77;102231.72;5059055;28;20491;-81
2023/08/17 05:46:16;;;;;;;1.13;0.50;;;;;;;18.34;72.50;102251.63;5061837;28;20071;-79
2023/08/17 05:48:43;;;;;;;1.38;0.30;;;;;;;18.36;72.45;102248.97;5054947;28;20052;-80
2023/08/17 05:51:10;;;;;;;0.52;0.30;;;;;;;18.38;72.31;102257.72;5058119;28;20413;-78
2023/08/17 05:53:37;;;;;;;2.03;0.40;;;;;;;18.34;72.13;102253.44;5053939;28;20060;-80
2023/08/17 05:56:05;;;;;;;0.73;0.40;;;;;;;18.43;72.11;102263.75;5066357;28;20052;-79
2023/08/17 05:58:32;;;;;;;2.00;0.40;;;;;;;18.46;72.11;102271.59;5063011;28;20067;-81
2023/08/17 06:01:06;;;;;;;0.52;0.30;;;;;;;18.44;72.10;102260.19;5066842;28;20049;-81
2023/08/17 06:03:33;;;;;;;2.45;0.40;;;;;;;18.52;71.92;102268.78;5063380;28;20059;-79
2023/08/17 06:06:00;;;;;;;5.60;0.40;;;;;;;18.37;72.00;102238.31;5058286;28;20052;-80
2023/08/17 06:08:26;;;;;;;5.22;0.40;;;;;;;18.57;71.78;102274.81;5060394;28;20044;-81
2023/08/17 06:10:53;;;;;;;2.22;0.40;;;;;;;18.60;71.70;102273.88;5064835;28;20614;-84
2023/08/17 06:13:22;;;;;;;0.55;0.40;;;;;;;18.62;71.52;102280.84;5059942;28;20048;-86
2023/08/17 06:15:49;;;;;;;0.88;0.35;;;;;;;18.64;70.72;102286.09;5055313;28;20055;-82
2023/08/17 06:18:16;;;;;;;1.63;0.40;;;;;;;18.68;70.72;102295.69;5062153;28;20063;-82
2023/08/17 06:20:46;;;;;;;0.65;0.40;;;;;;;18.68;70.95;102289.53;5063410;28;20053;-85
2023/08/17 06:23:13;;;;;;;2.47;0.38;;;;;;;18.66;71.22;102279.84;5068085;28;20044;-85
2023/08/17 06:25:40;;;;;;;2.97;0.40;;;;;;;18.75;71.25;102296.41;5069650;28;20405;-83
2023/08/17 06:28:07;;;;;;;1.05;0.40;;;;;;;18.68;71.06;102279.81;5061986;28;20544;-84
2023/08/17 06:30:36;;;;;;;2.67;0.40;;;;;;;18.68;71.06;102271.00;5068525;28;20116;-85
2023/08/17 06:33:03;;;;;;;1.15;0.40;;;;;;;18.57;70.91;102261.59;5063878;28;20059;-86
2023/08/17 06:35:30;;;;;;;2.28;0.30;;;;;;;18.86;70.72;102312.84;5060024;28;20047;-86
2023/08/17 06:37:57;;;;;;;6.57;0.77;;;;;;;18.88;69.89;102311.03;5059024;28;20052;-85
2023/08/17 06:40:24;;;;;;;3.00;0.40;;;;;;;18.70;69.97;102269.16;5062926;28;20045;-86
2023/08/17 06:42:52;;;;;;;1.45;0.30;;;;;;;18.92;70.04;102298.56;5069895;28;20056;-86
2023/08/17 06:45:19;;;;;;;1.95;0.85;;;;;;;18.94;70.27;102300.28;5055179;28;20052;-85
2023/08/17 06:47:48;;;;;;;2.47;0.50;;;;;;;19.00;70.19;102304.53;5062741;28;20122;-86
2023/08/17 06:50:15;;;;;;;1.17;0.40;;;;;;;19.03;69.62;102307.06;5056919;28;20583;-86
2023/08/17 06:52:42;;;;;;;1.60;0.40;;;;;;;19.05;69.22;102307.91;5055519;28;20041;-86
2023/08/17 06:55:10;;;;;;;0.47;0.30;;;;;;;19.01;68.55;102300.94;5063195;28;20048;-85
2023/08/17 06:57:37;;;;;;;1.40;0.30;;;;;;;18.88;68.82;102268.69;5058235;28;20044;-87
2023/08/17 07:00:06;;;;;;;0.98;0.30;;;;;;;19.14;68.43;102304.13;5061532;28;20490;-79
2023/08/17 07:02:34;;;;;;;0.38;0.30;;;;;;;19.17;67.84;102312.84;5055194;28;20083;-77
2023/08/17 07:05:03;;;;;;;0.70;0.30;;;;;;;19.21;68.44;102316.25;5051888;28;20051;-75
2023/08/17 07:07:31;;;;;;;2.05;0.40;;;;;;;19.17;68.03;102307.53;5054885;28;20576;-74
2023/08/17 07:09:58;;;;;;;1.25;0.60;;;;;;;19.24;68.07;102318.81;5050322;28;20049;-74
2023/08/17 07:12:25;;;;;;;1.02;0.30;;;;;;;19.27;67.91;102329.34;5050832;28;20090;-75
2023/08/17 07:14:52;;;;;;;1.65;0.30;;;;;;;19.30;67.45;102318.66;5053357;28;20060;-75
2023/08/17 07:17:19;;;;;;;2.65;0.32;;;;;;;19.19;67.24;102302.19;5053444;28;20045;-75
2023/08/17 07:19:46;;;;;;;0.30;0.30;;;;;;;19.25;67.17;102310.81;5056437;28;20040;-78
2023/08/17 07:22:16;;;;;;;0.88;0.30;;;;;;;19.42;67.02;102334.16;5060242;28;20049;-78
2023/08/17 07:24:43;;;;;;;1.60;0.45;;;;;;;19.46;66.98;102333.13;5055228;28;20067;-78
2023/08/17 07:27:10;;;;;;;1.15;0.40;;;;;;;19.46;66.58;102332.28;5059548;28;20044;-80
2023/08/17 07:29:36;;;;;;;0.50;0.30;;;;;;;19.55;66.30;102340.81;5051933;28;20051;-77
2023/08/17 07:32:04;;;;;;;1.95;0.40;;;;;;;19.61;66.41;102336.22;5053384;28;20067;-78
2023/08/17 07:34:31;;;;;;;1.80;0.30;;;;;;;19.59;66.21;102328.34;5065324;28;20050;-79
2023/08/17 07:36:58;;;;;;;0.40;0.38;;;;;;;19.73;65.65;102341.19;5058233;28;20136;-79
2023/08/17 07:39:26;;;;;;;0.55;0.30;;;;;;;19.79;65.91;102333.03;5056136;28;20053;-78
2023/08/17 07:41:53;;;;;;;0.95;0.40;;;;;;;19.85;65.63;102338.13;5052079;28;20040;-78
2023/08/17 07:44:20;;;;;;;2.35;0.68;;;;;;;19.95;65.59;102339.59;5054053;28;20071;-79
2023/08/17 07:46:47;;;;;;;1.65;0.30;;;;;;;20.04;65.11;102345.50;5050720;28;20434;-79
2023/08/17 07:49:14;;;;;;;3.10;0.30;;;;;;;20.12;64.77;102338.13;5051493;28;20049;-78
2023/08/17 07:51:41;;;;;;;1.20;0.40;;;;;;;20.20;65.40;102344.06;5054827;28;20415;-78
2023/08/17 07:54:08;;;;;;;2.17;0.30;;;;;;;20.29;64.50;102342.88;5055134;28;20128;-77
2023/08/17 07:56:36;;;;;;;4.40;0.47;;;;;;;20.38;64.01;102347.88;5055955;28;20521;-78
2023/08/17 07:59:03;;;;;;;2.65;0.82;;;;;;;20.49;63.51;102355.44;5048353;28;20487;-79
2023/08/17 08:01:30;;;;;;;0.55;0.30;;;;;;;20.57;62.88;102351.63;5053645;28;20136;-79
2023/08/17 08:03:57;;;;;;;3.50;0.30;;;;;;;20.73;62.65;102364.38;5058158;28;20124;-79
2023/08/17 08:06:24;;;;;;;0.70;0.22;;;;;;;20.85;62.29;102351.50;5050615;28;21565;-77
2023/08/17 08:08:51;;;;;;;1.58;0.30;;;;;;;20.89;61.62;102352.28;5053059;28;20131;-78
2023/08/17 08:11:18;;;;;;;2.05;0.40;;;;;;;21.01;61.34;102366.91;5052326;28;20051;-80
2023/08/17 08:13:46;;;;;;;1.02;0.30;;;;;;;21.07;61.51;102366.69;5060023;28;20055;-81
2023/08/17 08:16:13;;;;;;;0.35;0.30;;;;;;;21.14;61.16;102373.47;5053285;28;20044;-79
2023/08/17 08:18:40;;;;;;;1.58;0.30;;;;;;;21.20;60.84;102375.91;5053254;28;20078;-81
2023/08/17 08:21:07;;;;;;;3.72;0.20;;;;;;;21.24;60.51;102374.88;5054990;28;20051;-76
2023/08/17 08:23:34;;;;;;;1.45;0.30;;;;;;;21.28;60.09;102378.28;5046895;28;20045;-77
2023/08/17 08:26:01;;;;;;;3.55;0.30;;;;;;;21.28;59.93;102376.47;5048665;28;20052;-77
2023/08/17 08:28:28;;;;;;;0.82;0.25;;;;;;;21.23;59.36;102361.63;5048032;28;20045;-77
2023/08/17 08:30:56;;;;;;;1.02;0.20;;;;;;;21.31;58.70;102381.69;5048834;28;20053;-76
2023/08/17 08:33:23;;;;;;;0.77;0.30;;;;;;;21.31;59.75;102378.16;5045259;28;20043;-75
2023/08/17 08:35:51;;;;;;;1.38;0.30;;;;;;;21.28;60.13;102362.34;5054516;28;20048;-80
2023/08/17 08:38:18;;;;;;;1.42;0.40;;;;;;;21.36;59.44;102384.19;5055390;28;20128;-78
2023/08/17 08:40:48;;;;;;;0.55;0.20;;;;;;;21.29;58.95;102367.59;5055976;28;20064;-81
2023/08/17 08:43:15;;;;;;;1.73;0.30;;;;;;;21.41;59.64;102386.69;5058238;28;20047;-79
2023/08/17 08:45:44;;;;;;;1.15;0.30;;;;;;;21.45;59.44;102396.28;5054643;28;20060;-82
2023/08/17 08:48:12;;;;;;;0.40;0.30;;;;;;;21.48;59.56;102393.50;5056335;28;20677;-80
2023/08/17 08:50:41;;;;;;;6.80;0.40;;;;;;;21.44;59.72;102392.75;5054704;28;20056;-81
2023/08/17 08:53:13;;;;;;;0.32;0.20;;;;;;;21.44;59.51;102390.09;5055872;28;20049;-79
2023/08/17 08:55:46;;;;;;;0.80;0.30;;;;;;;21.52;59.27;102403.09;5049666;28;20060;-79
2023/08/17 08:58:13;;;;;;;2.78;0.40;;;;;;;21.52;59.66;102397.78;5050103;28;20618;-77
2023/08/17 09:00:41;;;;;;;4.40;0.40;;;;;;;21.52;59.08;102398.66;5045296;28;20504;-77
2023/08/17 09:03:10;;;;;;;0.95;0.30;;;;;;;21.54;59.31;102406.56;5054425;28;20068;-78
2023/08/17 09:05:39;;;;;;;2.38;0.38;;;;;;;21.58;59.69;102399.34;5054782;28;20043;-77
2023/08/17 09:08:09;;;;;;;4.03;0.30;;;;;;;21.60;59.01;102398.38;5052245;28;20048;-76
2023/08/17 09:10:36;;;;;;;4.20;0.52;;;;;;;21.61;58.91;102412.53;5057365;28;20045;-76
2023/08/17 09:13:03;;;;;;;6.25;0.93;;;;;;;21.63;59.21;102416.84;5050768;28;20071;-80
2023/08/17 09:15:30;;;;;;;2.30;0.35;;;;;;;21.64;59.09;102417.72;5062095;28;20055;-78
2023/08/17 09:17:58;;;;;;;1.40;0.40;;;;;;;21.65;59.08;102417.63;5057793;28;20044;-83
2023/08/17 09:20:40;;;;;;;1.58;0.40;;;;;;;21.67;58.83;102437.06;5056647;28;20045;-81
2023/08/17 09:23:13;;;;;;;5.13;0.40;;;;;;;21.63;58.73;102423.94;5061466;28;20045;-85
2023/08/17 09:25:41;;;;;;;2.72;0.40;;;;;;;21.54;58.56;102412.75;5056839;28;20045;-84
2023/08/17 09:28:09;;;;;;;2.40;0.57;;;;;;;21.70;59.01;102436.09;5059521;28;20056;-82
2023/08/17 09:30:51;;;;;;;1.48;0.30;;;;;;;21.71;58.98;102436.03;5058326;28;20483;-81
2023/08/17 09:33:18;;;;;;;1.85;0.30;;;;;;;21.71;58.31;102438.69;5059024;28;20175;-80
2023/08/17 09:35:47;;;;;;;1.45;0.47;;;;;;;21.71;58.49;102448.44;5060818;28;20059;-85
2023/08/17 09:38:14;;;;;;;1.38;0.40;;;;;;;21.71;58.45;102449.31;5063553;28;20043;-84
2023/08/17 09:40:41;;;;;;;0.63;0.30;;;;;;;21.68;58.60;102449.44;5057817;28;20045;-83
2023/08/17 09:43:09;;;;;;;2.40;0.50;;;;;;;21.70;58.74;102450.25;5058283;28;20086;-80
2023/08/17 09:45:37;;;;;;;0.98;0.30;;;;;;;21.70;58.69;102447.59;5055856;28;20048;-79
2023/08/17 09:48:04;;;;;;;0.70;0.35;;;;;;;21.68;58.78;102444.13;5053251;28;20059;-78
2023/08/17 09:50:32;;;;;;;5.78;0.40;;;;;;;21.69;58.97;102450.31;5051301;28;20041;-75
2023/08/17 09:53:00;;;;;;;3.72;0.45;;;;;;;21.69;58.68;102447.66;5051093;28;20442;-74
2023/08/17 09:55:27;;;;;;;1.45;0.40;;;;;;;21.68;58.76;102443.25;5048246;28;20049;-74
2023/08/17 09:57:55;;;;;;;0.90;0.50;;;;;;;21.68;58.79;102445.91;5051639;28;20056;-75
2023/08/17 10:00:22;;;;;;;2.55;0.32;;;;;;;21.67;58.82;102445.06;5054867;28;20055;-74
2023/08/17 10:02:51;;;;;;;3.03;0.40;;;;;;;21.63;59.35;102439.91;5049826;28;20041;-75
2023/08/17 10:05:20;;;;;;;3.45;0.95;;;;;;;21.68;58.86;102448.56;5046653;28;20053;-73
2023/08/17 10:07:49;;;;;;;1.83;0.30;;;;;;;21.66;58.45;102451.31;5052775;28;20410;-77
2023/08/17 10:10:23;;;;;;;3.50;0.40;;;;;;;21.66;58.40;102451.31;5054150;28;20048;-77
2023/08/17 10:13:03;;;;;;;0.55;0.40;;;;;;;21.68;58.29;102453.91;5050297;28;20060;-78
2023/08/17 10:15:32;;;;;;;2.92;1.08;;;;;;;21.66;58.62;102459.28;5053201;28;20135;-78
2023/08/17 10:18:07;;;;;;;0.30;0.30;;;;;;;21.60;58.00;102451.56;5058402;28;20041;-78
2023/08/17 10:20:35;;;;;;;2.33;0.30;;;;;;;21.64;58.46;102460.28;5054429;28;20040;-79
2023/08/17 10:23:09;;;;;;;0.90;0.30;;;;;;;21.55;58.63;102445.53;5054857;28;20400;-77
2023/08/17 10:25:39;;;;;;;2.55;0.30;;;;;;;21.67;58.41;102471.66;5053511;28;20049;-79
2023/08/17 10:28:07;;;;;;;0.68;0.30;;;;;;;21.69;57.68;102467.16;5055385;28;20048;-79
2023/08/17 10:30:34;;;;;;;1.73;0.40;;;;;;;21.71;57.51;102464.41;5056287;28;20402;-78
2023/08/17 10:33:03;;;;;;;2.25;0.43;;;;;;;21.73;57.35;102474.06;5055830;28;20927;-79
2023/08/17 10:35:31;;;;;;;2.25;0.47;;;;;;;21.73;57.75;102474.06;5056485;28;20049;-79
2023/08/17 10:37:59;;;;;;;1.35;0.35;;;;;;;21.73;57.29;102468.75;5051645;28;20049;-79
2023/08/17 10:40:29;;;;;;;1.92;0.30;;;;;;;21.76;57.25;102467.78;5054550;28;20047;-79
2023/08/17 10:42:57;;;;;;;2.38;0.35;;;;;;;21.76;57.91;102468.63;5061471;28;20486;-79
2023/08/17 10:45:29;;;;;;;2.67;0.40;;;;;;;21.74;58.12;102465.19;5053817;28;20052;-79
2023/08/17 10:48:26;;;;;;;1.02;0.50;;;;;;;21.75;57.73;102463.38;5056686;28;20051;-80
2023/08/17 10:51:02;;;;;;;2.15;0.50;;;;;;;21.73;57.82;102460.78;5054806;28;20041;-80
2023/08/17 10:53:35;;;;;;;;;;;;;;;21.70;57.99;102460.88;5055950;28;20045;-79
2023/08/17 10:56:01;;;;;;;1.55;0.30;;;;;;;21.65;58.12;102459.34;5050852;28;19977;-79
2023/08/17 10:58:34;;;;;;;0.30;0.30;;;;;;;21.47;58.21;102447.63;5060915;28;20072;-79
2023/08/17 11:01:00;;;;;;;0.95;0.40;;;;;;;21.60;58.22;102470.16;5049198;28;20079;-81
2023/08/17 11:03:28;;;;;;;0.68;0.35;;;;;;;21.58;58.51;102464.03;5060018;28;20112;-82
2023/08/17 11:05:56;;;;;;;1.20;0.40;;;;;;;21.55;58.26;102464.16;5053334;28;20041;-78
2023/08/17 11:08:25;;;;;;;0.70;0.40;;;;;;;21.57;58.45;102470.25;5049769;28;20575;-79
2023/08/17 11:11:03;;;;;;;2.40;1.25;;;;;;;21.57;58.62;102467.59;5052483;28;20045;-80
2023/08/17 11:13:33;;;;;;;2.58;0.40;;;;;;;21.58;58.01;102464.03;5058604;28;20132;-78
2023/08/17 11:16:01;;;;;;;0.60;0.35;;;;;;;21.61;57.84;102463.91;5056639;28;20483;-79
2023/08/17 11:18:28;;;;;;;0.30;0.30;;;;;;;21.64;58.12;102474.44;5058353;28;20050;-77
2023/08/17 11:20:56;;;;;;;1.92;0.30;;;;;;;21.67;58.80;102470.78;5056215;28;20041;-79
2023/08/17 11:23:24;;;;;;;1.13;0.35;;;;;;;21.69;58.05;102477.78;5056416;28;20051;-81
2023/08/17 11:25:53;;;;;;;2.13;0.60;;;;;;;21.72;58.00;102476.81;5049965;28;20117;-80
2023/08/17 11:28:20;;;;;;;0.38;0.30;;;;;;;21.73;58.25;102476.72;5054467;28;20045;-76